createdAt,value
2017-12-28T20:19:46.187Z,3.00
2017-12-28T20:22:13.644Z,3.37
2017-12-28T20:24:41.137Z,3.00
2017-12-28T20:27:08.609Z,3.27
2017-12-28T20:29:36.076Z,3.03
2017-12-28T20:32:03.550Z,3.27
2017-12-28T20:36:04.721Z,43.73
2017-12-28T20:38:32.484Z,40.90
2017-12-28T20:40:59.954Z,30.50
2017-12-28T20:43:27.495Z,24.10
2017-12-28T20:45:54.953Z,15.10
2017-12-28T20:48:22.639Z,13.20
2017-12-28T20:50:50.097Z,13.53
2017-12-28T20:53:17.564Z,13.80
2017-12-28T20:55:45.957Z,13.00
2017-12-28T20:58:13.554Z,13.27
2017-12-28T21:00:41.145Z,13.20
2017-12-28T21:03:08.793Z,12.17
2017-12-28T21:05:36.261Z,12.43
2017-12-28T21:08:03.728Z,12.53
2017-12-28T21:10:31.332Z,13.00
2017-12-28T21:12:58.932Z,12.63
2017-12-28T21:15:26.418Z,12.40
2017-12-28T21:17:53.875Z,7.43
2017-12-28T21:20:21.355Z,4.90
2017-12-28T21:22:48.823Z,4.60
2017-12-28T21:25:16.357Z,4.90
2017-12-28T21:27:44.126Z,5.40
2017-12-28T21:30:11.696Z,5.60
2017-12-28T21:32:39.915Z,5.20
2017-12-28T21:35:07.377Z,5.83
2017-12-28T21:37:35.136Z,6.00
2017-12-28T21:40:02.592Z,5.50
2017-12-28T21:42:30.044Z,5.00
2017-12-28T21:44:57.541Z,5.73
2017-12-28T21:47:25.017Z,4.77
2017-12-28T21:49:52.505Z,5.43
2017-12-28T21:52:20.216Z,5.63
2017-12-28T21:54:48.014Z,5.50
2017-12-28T21:57:15.629Z,5.60
2017-12-28T21:59:43.227Z,5.50
2017-12-28T22:02:10.971Z,5.33
2017-12-28T22:04:38.601Z,4.80
2017-12-28T22:07:06.109Z,5.37
2017-12-28T22:09:33.656Z,5.30
2017-12-28T22:12:01.312Z,4.63
2017-12-28T22:14:28.772Z,5.50
2017-12-28T22:16:56.269Z,5.20
2017-12-28T22:19:23.720Z,5.30
2017-12-28T22:21:51.187Z,4.80
2017-12-28T22:24:18.627Z,4.93
2017-12-28T22:26:46.104Z,5.10
2017-12-28T22:29:13.586Z,5.03
2017-12-28T22:31:41.085Z,5.07
2017-12-28T22:34:08.740Z,4.47
2017-12-28T22:36:36.248Z,4.87
2017-12-28T22:39:03.714Z,4.37
2017-12-28T22:41:31.182Z,4.87
2017-12-28T22:43:58.685Z,4.90
2017-12-28T22:46:26.158Z,4.70
2017-12-28T22:48:53.768Z,4.87
2017-12-28T22:51:21.364Z,5.03
2017-12-28T22:53:48.832Z,4.93
2017-12-28T22:56:16.484Z,4.43
2017-12-28T22:58:44.824Z,4.87
2017-12-28T23:01:12.294Z,4.97
2017-12-28T23:03:39.812Z,4.37
2017-12-28T23:06:07.353Z,4.47
2017-12-28T23:08:34.817Z,4.40
2017-12-28T23:11:02.273Z,4.73
2017-12-28T23:13:29.748Z,4.77
2017-12-28T23:15:57.343Z,4.10
2017-12-28T23:18:24.864Z,4.40
2017-12-28T23:20:52.321Z,4.50
2017-12-28T23:23:19.856Z,4.20
2017-12-28T23:25:47.477Z,4.17
2017-12-28T23:28:17.854Z,3.93
2017-12-28T23:30:45.322Z,4.07
2017-12-28T23:33:12.791Z,4.43
2017-12-28T23:35:40.520Z,4.30
2017-12-28T23:38:07.969Z,3.83
2017-12-28T23:40:35.553Z,4.10
2017-12-28T23:43:03.069Z,3.80
2017-12-28T23:45:30.656Z,4.23
2017-12-28T23:47:58.421Z,3.87
2017-12-28T23:50:26.084Z,4.20
2017-12-28T23:52:53.545Z,3.97
2017-12-28T23:55:21.029Z,4.20
2017-12-28T23:57:48.512Z,4.77
